Time;durP1;ratioP1;P1;durP2;ratioP2;P2;SDS_P1;SDS_P2;PMS_P1;PMS_P2;Temp;Humidity;BMP_temperature;BMP_pressure;BME280_temperature;BME280_humidity;BME280_pressure;Samples;Min_cycle;Max_cycle;Signal;HPM_P1;HPM_P2
2023/03/02 00:01:33;;;;;;;14.05;8.93;;;-1.50;99.90;;;;;;5047075;28;20078;-81
2023/03/02 00:04:00;;;;;;;12.80;8.48;;;-1.60;99.90;;;;;;5038295;28;20044;-81
2023/03/02 00:06:29;;;;;;;17.08;8.25;;;-1.60;99.90;;;;;;5043811;28;20032;-81
2023/03/02 00:08:59;;;;;;;16.00;8.48;;;-1.60;99.90;;;;;;5045431;28;20521;-81
2023/03/02 00:11:25;;;;;;;16.20;8.68;;;-1.60;99.90;;;;;;5043311;28;20020;-82
2023/03/02 00:13:51;;;;;;;13.00;8.20;;;-1.60;99.90;;;;;;5050613;28;20470;-81
2023/03/02 00:16:16;;;;;;;12.75;7.80;;;-1.70;99.90;;;;;;5048720;28;20036;-81
2023/03/02 00:18:42;;;;;;;16.50;8.55;;;-1.70;99.90;;;;;;5046610;28;20036;-81
2023/03/02 00:21:09;;;;;;;18.15;8.45;;;-1.70;99.90;;;;;;5047653;28;20025;-81
2023/03/02 00:23:36;;;;;;;14.63;8.15;;;-1.80;99.90;;;;;;5045070;28;20033;-81
2023/03/02 00:26:02;;;;;;;18.42;9.80;;;-1.80;99.90;;;;;;5050979;28;20110;-81
2023/03/02 00:28:31;;;;;;;17.42;9.20;;;-1.70;99.90;;;;;;5046104;28;20036;-83
2023/03/02 00:30:57;;;;;;;26.10;9.10;;;-1.70;99.90;;;;;;5044712;28;20053;-81
2023/03/02 00:33:22;;;;;;;14.32;7.55;;;-1.80;99.90;;;;;;5039860;28;20029;-81
2023/03/02 00:35:48;;;;;;;15.15;9.05;;;-1.80;99.90;;;;;;5044144;28;20025;-81
2023/03/02 00:38:14;;;;;;;17.02;8.45;;;-1.80;99.90;;;;;;5062576;28;20068;-82
2023/03/02 00:40:50;;;;;;;13.75;8.32;;;-1.80;99.90;;;;;;5060007;28;20542;-81
2023/03/02 00:43:16;;;;;;;14.05;8.20;;;-1.80;99.90;;;;;;5062192;28;20036;-81
2023/03/02 00:45:42;;;;;;;15.13;9.02;;;-1.80;99.90;;;;;;5066199;28;20405;-81
2023/03/02 00:48:07;;;;;;;16.27;7.93;;;-1.80;99.90;;;;;;5045107;28;20047;-81
2023/03/02 00:50:39;;;;;;;17.77;8.88;;;-1.80;99.90;;;;;;5063412;28;20075;-82
2023/03/02 00:53:09;;;;;;;18.33;8.40;;;-1.80;99.90;;;;;;5059991;28;20040;-82
2023/03/02 00:55:35;;;;;;;13.40;8.38;;;-1.90;99.90;;;;;;5066798;28;21001;-82
2023/03/02 00:58:01;;;;;;;18.20;8.82;;;-1.90;99.90;;;;;;5070289;28;20097;-81
2023/03/02 01:00:31;;;;;;;15.57;9.10;;;-2.00;99.90;;;;;;5065770;28;20025;-82
2023/03/02 01:02:57;;;;;;;14.63;8.38;;;-2.00;99.90;;;;;;5064168;28;20028;-82
2023/03/02 01:05:23;;;;;;;16.08;8.38;;;-2.10;99.90;;;;;;5064688;28;20028;-82
2023/03/02 01:07:48;;;;;;;14.00;8.48;;;-2.10;99.90;;;;;;5072454;28;20044;-82
2023/03/02 01:10:14;;;;;;;13.32;8.00;;;-2.10;99.90;;;;;;5065575;28;20029;-82
2023/03/02 01:12:40;;;;;;;13.55;7.63;;;-2.10;99.90;;;;;;5062924;28;20046;-82
2023/03/02 01:15:07;;;;;;;14.25;8.30;;;-2.20;99.90;;;;;;5063427;28;20024;-83
2023/03/02 01:17:33;;;;;;;13.70;6.90;;;-2.20;99.90;;;;;;5058472;28;20025;-82
2023/03/02 01:19:58;;;;;;;12.40;7.60;;;-2.20;99.90;;;;;;5065252;28;20127;-82
2023/03/02 01:22:24;;;;;;;13.15;7.10;;;-2.20;99.90;;;;;;5065734;28;22344;-82
2023/03/02 01:24:50;;;;;;;15.13;7.95;;;-2.20;99.90;;;;;;5064616;28;20032;-82
2023/03/02 01:27:16;;;;;;;20.88;9.13;;;-2.10;99.90;;;;;;5062126;28;20494;-82
2023/03/02 01:29:42;;;;;;;13.32;8.13;;;-2.10;99.90;;;;;;5059342;28;20436;-83
2023/03/02 01:32:08;;;;;;;18.92;9.02;;;-2.10;99.90;;;;;;5057822;28;20097;-82
2023/03/02 01:34:34;;;;;;;14.30;7.35;;;-2.10;99.90;;;;;;5060760;28;20477;-82
2023/03/02 01:36:59;;;;;;;18.45;9.05;;;-2.10;99.90;;;;;;5066043;28;20029;-82
2023/03/02 01:39:25;;;;;;;15.60;8.02;;;-2.10;99.90;;;;;;5073050;28;20033;-82
2023/03/02 01:41:52;;;;;;;13.65;8.60;;;-2.20;99.90;;;;;;5071680;28;20032;-83
2023/03/02 01:44:33;;;;;;;12.93;7.75;;;-2.10;99.90;;;;;;5077801;28;20027;-83
2023/03/02 01:46:58;;;;;;;17.58;9.20;;;-2.10;99.90;;;;;;5075395;28;20040;-82
2023/03/02 01:49:24;;;;;;;17.88;8.85;;;-2.10;99.90;;;;;;5073870;28;20089;-82
2023/03/02 01:51:51;;;;;;;17.92;8.95;;;-2.20;99.90;;;;;;5061588;28;20066;-82
2023/03/02 01:54:21;;;;;;;16.83;9.07;;;-2.10;99.90;;;;;;5064700;28;20029;-83
2023/03/02 01:56:54;;;;;;;15.88;8.45;;;-2.20;99.90;;;;;;5066854;28;20669;-82
2023/03/02 01:59:21;;;;;;;17.77;8.98;;;-2.20;99.90;;;;;;5070575;28;20051;-82
2023/03/02 02:01:55;;;;;;;16.90;8.68;;;-2.20;99.90;;;;;;5073492;28;20054;-83
2023/03/02 02:04:23;;;;;;;12.80;8.00;;;-2.20;99.90;;;;;;5059866;28;20036;-82
2023/03/02 02:07:08;;;;;;;16.63;9.35;;;-2.20;99.90;;;;;;5076362;28;20489;-83
2023/03/02 02:09:44;;;;;;;21.65;10.07;;;-2.10;99.90;;;;;;5067870;28;20032;-83
2023/03/02 02:12:13;;;;;;;18.60;9.50;;;-2.20;99.90;;;;;;5066167;28;20093;-83
2023/03/02 02:14:39;;;;;;;13.30;8.88;;;-2.20;99.90;;;;;;5060971;28;20363;-83
2023/03/02 02:17:05;;;;;;;16.50;9.45;;;-2.30;99.90;;;;;;5067983;28;20099;-83
2023/03/02 02:19:58;;;;;;;16.27;9.48;;;-2.30;99.90;;;;;;5066901;28;20040;-83
2023/03/02 02:22:46;;;;;;;19.45;9.55;;;-2.40;99.90;;;;;;5072265;28;20031;-83
2023/03/02 02:25:32;;;;;;;17.50;9.93;;;-2.40;99.90;;;;;;5063832;28;20067;-82
2023/03/02 02:27:59;;;;;;;18.08;9.23;;;-2.40;99.90;;;;;;5060680;28;20039;-83
2023/03/02 02:30:25;;;;;;;19.52;10.30;;;-2.40;99.90;;;;;;5045251;28;20269;-83
2023/03/02 02:32:53;;;;;;;18.25;10.70;;;-2.50;99.90;;;;;;5068675;28;20543;-83
2023/03/02 02:35:23;;;;;;;18.05;9.80;;;-2.50;99.90;;;;;;5068529;28;20032;-83
2023/03/02 02:38:02;;;;;;;21.70;11.00;;;-2.50;99.90;;;;;;5076417;28;20055;-83
2023/03/02 02:40:54;;;;;;;21.98;10.55;;;-2.50;99.90;;;;;;5068338;28;20020;-83
2023/03/02 02:43:21;;;;;;;21.42;10.13;;;-2.50;99.90;;;;;;5072731;28;20115;-83
2023/03/02 02:45:52;;;;;;;20.63;10.15;;;-2.60;99.90;;;;;;5062803;28;20017;-83
2023/03/02 02:48:21;;;;;;;29.50;11.05;;;-2.60;99.90;;;;;;5068617;28;20086;-83
2023/03/02 02:50:52;;;;;;;18.75;10.73;;;-2.60;99.90;;;;;;5053723;28;20021;-83
2023/03/02 02:53:24;;;;;;;21.92;10.05;;;-2.60;99.90;;;;;;5067730;28;20103;-83
2023/03/02 02:55:53;;;;;;;23.35;11.48;;;-2.50;99.90;;;;;;5068327;28;20064;-83
2023/03/02 02:58:41;;;;;;;19.77;11.27;;;-2.60;99.90;;;;;;5066352;28;20389;-83
2023/03/02 03:01:06;;;;;;;24.95;11.38;;;-2.50;99.90;;;;;;5069563;28;20373;-82
2023/03/02 03:03:36;;;;;;;20.98;10.75;;;-2.60;99.90;;;;;;5063623;28;20039;-83
2023/03/02 03:06:12;;;;;;;21.02;10.68;;;-2.60;99.90;;;;;;5066885;28;20032;-83
2023/03/02 03:08:40;;;;;;;;;;;-2.60;99.90;;;;;;5071073;28;20522;-83
2023/03/02 03:11:07;;;;;;;24.55;11.02;;;-2.70;99.90;;;;;;5066808;28;19908;-83
2023/03/02 03:13:33;;;;;;;20.35;9.65;;;-2.70;99.90;;;;;;5064861;28;20041;-82
2023/03/02 03:16:01;;;;;;;23.55;9.82;;;-2.70;99.90;;;;;;5073344;28;20024;-83
2023/03/02 03:18:29;;;;;;;22.55;10.43;;;-2.60;99.90;;;;;;5067645;28;20163;-82
2023/03/02 03:20:55;;;;;;;22.83;10.80;;;-2.60;99.90;;;;;;5075347;28;20028;-82
2023/03/02 03:23:20;;;;;;;20.83;9.85;;;-2.60;99.90;;;;;;5077438;28;20366;-84
2023/03/02 03:25:46;;;;;;;15.50;9.45;;;-2.70;99.90;;;;;;5073457;28;20023;-83
2023/03/02 03:28:12;;;;;;;22.73;10.70;;;-2.70;99.90;;;;;;5067999;28;20382;-83
2023/03/02 03:30:37;;;;;;;22.92;10.10;;;-2.70;99.90;;;;;;5068819;28;20024;-82
2023/03/02 03:33:03;;;;;;;23.42;10.05;;;-2.80;99.90;;;;;;5068284;28;20400;-82
2023/03/02 03:35:28;;;;;;;16.63;9.95;;;-2.80;99.90;;;;;;5066655;28;20485;-81
2023/03/02 03:37:54;;;;;;;18.60;10.15;;;-2.80;99.90;;;;;;5065678;28;20048;-82
2023/03/02 03:40:19;;;;;;;14.98;9.25;;;-2.80;99.90;;;;;;5067251;28;20115;-82
2023/03/02 03:42:45;;;;;;;17.42;9.65;;;-2.80;99.90;;;;;;5054690;28;20052;-82
2023/03/02 03:45:11;;;;;;;20.17;9.60;;;-2.80;99.90;;;;;;5051899;28;20033;-82
2023/03/02 03:47:37;;;;;;;22.80;10.15;;;-2.80;99.90;;;;;;5063474;28;20040;-83
2023/03/02 03:50:04;;;;;;;18.25;10.27;;;-2.80;99.90;;;;;;5054376;28;20422;-82
2023/03/02 03:52:29;;;;;;;19.45;10.40;;;-2.90;99.90;;;;;;5055484;28;20056;-82
2023/03/02 03:54:57;;;;;;;15.50;9.25;;;-2.90;99.90;;;;;;5063711;28;20056;-82
2023/03/02 03:57:22;;;;;;;19.77;10.05;;;-2.90;99.90;;;;;;5071153;28;20025;-82
2023/03/02 03:59:48;;;;;;;18.75;10.18;;;-2.90;99.90;;;;;;5060113;28;20046;-82
2023/03/02 04:02:14;;;;;;;16.95;9.70;;;-2.90;99.90;;;;;;5063090;28;20033;-83
2023/03/02 04:04:39;;;;;;;19.92;11.27;;;-2.90;99.90;;;;;;5057739;28;20049;-82
2023/03/02 04:07:05;;;;;;;24.65;11.98;;;-2.80;99.90;;;;;;5053448;28;20032;-82
2023/03/02 04:09:32;;;;;;;23.77;10.82;;;-2.80;99.90;;;;;;5061443;28;20071;-82
2023/03/02 04:11:58;;;;;;;29.98;13.20;;;-2.70;99.90;;;;;;5050936;28;20025;-83
2023/03/02 04:14:24;;;;;;;25.80;13.48;;;-2.70;99.90;;;;;;5061489;28;20024;-82
2023/03/02 04:16:51;;;;;;;30.25;14.32;;;-2.80;99.90;;;;;;5062726;28;20068;-82
2023/03/02 04:19:16;;;;;;;33.15;16.23;;;-2.80;99.90;;;;;;5056827;28;20049;-82
2023/03/02 04:21:46;;;;;;;31.48;15.80;;;-2.80;99.90;;;;;;5061608;28;20028;-82
2023/03/02 04:24:13;;;;;;;37.55;16.60;;;-2.80;99.90;;;;;;5055874;28;20238;-82
2023/03/02 04:26:40;;;;;;;33.42;17.05;;;-2.80;99.90;;;;;;5055199;28;20025;-82
2023/03/02 04:29:07;;;;;;;34.20;16.20;;;-2.90;99.90;;;;;;5051804;28;20535;-82
2023/03/02 04:31:34;;;;;;;32.83;15.35;;;-2.90;99.90;;;;;;5058243;28;20199;-82
2023/03/02 04:34:03;;;;;;;27.15;14.82;;;-2.90;99.90;;;;;;5063968;28;20032;-82
2023/03/02 04:36:29;;;;;;;32.40;15.00;;;-2.90;99.90;;;;;;5062285;28;20492;-82
2023/03/02 04:38:55;;;;;;;29.45;14.90;;;-2.90;99.90;;;;;;5061447;28;20398;-82
2023/03/02 04:41:21;;;;;;;26.85;13.75;;;-2.90;99.90;;;;;;5064184;28;20033;-81
2023/03/02 04:43:47;;;;;;;25.92;12.98;;;-2.80;99.90;;;;;;5063018;28;20024;-82
2023/03/02 04:46:20;;;;;;;26.95;12.48;;;-2.80;99.90;;;;;;5058029;28;20448;-82
2023/03/02 04:48:46;;;;;;;27.10;12.77;;;-2.80;99.90;;;;;;5062432;28;20055;-82
2023/03/02 04:51:34;;;;;;;23.95;12.48;;;-2.80;99.90;;;;;;5050637;28;20433;-82
2023/03/02 04:54:04;;;;;;;22.60;11.05;;;-2.90;99.90;;;;;;5045269;28;20397;-82
2023/03/02 04:56:30;;;;;;;24.60;12.15;;;-2.80;99.90;;;;;;5061655;28;20112;-83
2023/03/02 04:58:56;;;;;;;30.08;12.90;;;-2.80;99.90;;;;;;5057749;28;20041;-82
2023/03/02 05:01:24;;;;;;;22.95;11.85;;;-2.80;99.90;;;;;;5054843;28;20017;-82
2023/03/02 05:03:50;;;;;;;17.95;10.40;;;-2.70;99.90;;;;;;5059163;28;20033;-82
2023/03/02 05:06:16;;;;;;;23.23;11.27;;;-2.70;99.90;;;;;;5056607;28;20138;-82
2023/03/02 05:08:42;;;;;;;20.65;10.90;;;-2.70;99.90;;;;;;5055668;28;20335;-82
2023/03/02 05:11:10;;;;;;;18.35;11.30;;;-2.60;99.90;;;;;;5061283;28;20099;-82
2023/03/02 05:13:37;;;;;;;18.02;10.15;;;-2.70;99.90;;;;;;5067304;28;20027;-82
2023/03/02 05:16:03;;;;;;;19.27;10.50;;;-2.70;99.90;;;;;;5064775;28;20429;-82
2023/03/02 05:18:30;;;;;;;16.35;10.00;;;-2.70;99.90;;;;;;5060564;28;20020;-82
2023/03/02 05:20:56;;;;;;;19.05;10.75;;;-2.70;99.90;;;;;;5050505;28;20040;-82
2023/03/02 05:23:25;;;;;;;19.90;10.35;;;-2.80;99.90;;;;;;5058953;28;20035;-82
2023/03/02 05:25:53;;;;;;;24.10;10.07;;;-2.80;99.90;;;;;;5061065;28;20059;-81
2023/03/02 05:28:20;;;;;;;19.27;10.82;;;-2.80;99.90;;;;;;5049304;28;20083;-81
2023/03/02 05:30:46;;;;;;;21.20;12.27;;;-2.90;99.90;;;;;;5066437;28;20408;-81
2023/03/02 05:33:12;;;;;;;21.85;11.77;;;-2.90;99.90;;;;;;5058660;28;20474;-81
2023/03/02 05:35:38;;;;;;;20.65;11.57;;;-3.00;99.90;;;;;;5044714;28;20039;-81
2023/03/02 05:38:04;;;;;;;21.27;10.25;;;-3.00;99.90;;;;;;5052742;28;20072;-81
2023/03/02 05:40:30;;;;;;;23.75;10.93;;;-3.00;99.90;;;;;;5062140;28;20052;-81
2023/03/02 05:42:56;;;;;;;23.00;11.27;;;-3.00;99.90;;;;;;5067156;28;20427;-81
2023/03/02 05:45:28;;;;;;;21.60;10.95;;;-3.00;99.90;;;;;;5052423;28;20480;-79
2023/03/02 05:47:54;;;;;;;20.25;9.98;;;-3.00;99.90;;;;;;5064504;28;20076;-80
2023/03/02 05:50:20;;;;;;;21.65;10.25;;;-3.00;99.90;;;;;;5064940;28;20067;-80
2023/03/02 05:52:45;;;;;;;21.80;10.57;;;-3.00;99.90;;;;;;5063262;28;20503;-80
2023/03/02 05:55:12;;;;;;;19.13;10.68;;;-3.00;99.90;;;;;;5062987;28;20633;-80
2023/03/02 05:57:38;;;;;;;21.80;10.82;;;-3.00;99.90;;;;;;5060019;28;20051;-81
2023/03/02 06:00:05;;;;;;;21.85;11.80;;;-3.00;99.90;;;;;;5060901;28;20041;-80
2023/03/02 06:02:31;;;;;;;20.15;10.50;;;-3.10;99.90;;;;;;5059458;28;20366;-80
2023/03/02 06:04:56;;;;;;;17.05;10.05;;;-3.00;99.90;;;;;;5061907;28;20177;-80
2023/03/02 06:07:22;;;;;;;18.83;10.68;;;-3.10;99.90;;;;;;5064421;28;20148;-81
2023/03/02 06:09:50;;;;;;;26.48;10.43;;;-3.10;99.90;;;;;;5060174;28;20021;-80
2023/03/02 06:12:16;;;;;;;23.08;11.35;;;-3.10;99.90;;;;;;5064453;28;20059;-80
2023/03/02 06:14:43;;;;;;;22.85;9.60;;;-3.10;99.90;;;;;;5065258;28;20031;-80
2023/03/02 06:17:09;;;;;;;18.33;10.05;;;-3.10;99.90;;;;;;5058973;28;20029;-80
2023/03/02 06:19:34;;;;;;;19.70;10.77;;;-3.00;99.90;;;;;;5051321;28;20028;-80
2023/03/02 06:22:00;;;;;;;21.83;10.48;;;-3.00;99.90;;;;;;5066454;28;20036;-80
2023/03/02 06:24:25;;;;;;;22.17;11.25;;;-3.00;99.90;;;;;;5061246;28;20036;-80
2023/03/02 06:26:54;;;;;;;18.98;9.52;;;-3.00;99.90;;;;;;5071222;28;20044;-80
2023/03/02 06:29:21;;;;;;;19.20;10.38;;;-3.00;99.90;;;;;;5072429;28;20036;-80
2023/03/02 06:31:47;;;;;;;20.85;10.68;;;-2.90;99.90;;;;;;5074947;28;20024;-80
2023/03/02 06:34:13;;;;;;;20.02;10.07;;;-2.90;99.90;;;;;;5092615;28;20035;-80
2023/03/02 06:36:39;;;;;;;18.55;10.48;;;-2.80;99.90;;;;;;5071339;28;20028;-80
2023/03/02 06:39:05;;;;;;;22.27;10.88;;;-2.80;99.90;;;;;;5071985;28;20512;-80
2023/03/02 06:41:34;;;;;;;22.98;11.10;;;-2.70;99.90;;;;;;5068900;28;20040;-80
2023/03/02 06:44:00;;;;;;;23.13;12.05;;;-2.70;99.90;;;;;;5068466;28;20037;-80
2023/03/02 06:46:25;;;;;;;19.45;10.93;;;-2.70;99.90;;;;;;5071923;28;20037;-80
2023/03/02 06:48:51;;;;;;;20.10;10.52;;;-2.70;99.90;;;;;;5064750;28;20127;-80
2023/03/02 06:51:17;;;;;;;24.77;11.25;;;-2.70;99.90;;;;;;5071348;28;20033;-80
2023/03/02 06:53:42;;;;;;;27.20;11.48;;;-2.60;99.90;;;;;;5064117;28;20027;-80
2023/03/02 06:56:09;;;;;;;19.35;10.48;;;-2.60;99.90;;;;;;5071051;28;20025;-80
2023/03/02 06:58:35;;;;;;;17.50;10.88;;;-2.50;99.90;;;;;;5071685;28;20029;-80
2023/03/02 07:01:00;;;;;;;18.08;10.40;;;-2.40;99.90;;;;;;5069367;28;20492;-81
2023/03/02 07:03:26;;;;;;;19.60;10.07;;;-2.30;99.90;;;;;;5058466;28;20025;-80
2023/03/02 07:05:51;;;;;;;20.08;9.93;;;-2.20;99.90;;;;;;5083010;28;20081;-80
2023/03/02 07:08:17;;;;;;;20.08;10.10;;;-2.20;99.90;;;;;;5080380;28;20091;-80
2023/03/02 07:10:43;;;;;;;20.40;10.70;;;-2.00;99.90;;;;;;5051632;28;20079;-80
2023/03/02 07:13:08;;;;;;;18.98;9.73;;;-2.00;99.90;;;;;;5063887;28;20390;-80
2023/03/02 07:15:34;;;;;;;15.90;9.60;;;-1.90;99.90;;;;;;5064591;28;20033;-81
2023/03/02 07:17:59;;;;;;;21.70;9.55;;;-1.80;99.90;;;;;;5069301;28;20536;-81
2023/03/02 07:20:25;;;;;;;14.25;9.30;;;-1.70;99.90;;;;;;5069634;28;20029;-82
2023/03/02 07:22:50;;;;;;;18.65;10.13;;;-1.70;99.90;;;;;;5073575;28;20082;-81
2023/03/02 07:25:16;;;;;;;16.38;9.32;;;-1.60;99.90;;;;;;5069573;28;20028;-81
2023/03/02 07:27:42;;;;;;;20.55;9.90;;;-1.50;99.90;;;;;;5060888;28;20124;-81
2023/03/02 07:30:11;;;;;;;16.50;9.05;;;-1.40;99.90;;;;;;5067938;28;20032;-81
2023/03/02 07:32:37;;;;;;;15.52;9.15;;;-1.40;99.90;;;;;;5064256;28;20107;-81
2023/03/02 07:35:02;;;;;;;17.52;9.00;;;-1.30;99.90;;;;;;5062833;28;20477;-81
2023/03/02 07:37:28;;;;;;;18.30;8.90;;;-1.30;99.90;;;;;;5070392;28;20094;-81
2023/03/02 07:39:53;;;;;;;14.15;9.18;;;-1.20;99.90;;;;;;5067951;28;20035;-81
2023/03/02 07:42:19;;;;;;;16.60;9.88;;;-1.20;99.90;;;;;;5066007;28;20037;-81
2023/03/02 07:44:44;;;;;;;18.65;9.88;;;-1.10;99.90;;;;;;5066483;28;20422;-81
2023/03/02 07:47:10;;;;;;;17.27;10.13;;;-1.00;99.90;;;;;;5050896;28;20040;-81
2023/03/02 07:49:36;;;;;;;17.30;10.05;;;-1.00;99.90;;;;;;5062036;28;20469;-81
2023/03/02 07:52:02;;;;;;;18.50;10.43;;;-0.80;99.90;;;;;;5060305;28;20449;-81
2023/03/02 07:54:29;;;;;;;17.67;9.27;;;-0.80;99.90;;;;;;5067338;28;20016;-80
2023/03/02 07:56:55;;;;;;;17.00;9.25;;;-0.80;99.90;;;;;;5068317;28;20081;-80
2023/03/02 07:59:21;;;;;;;20.13;9.13;;;-0.70;99.90;;;;;;5068295;28;20508;-80
2023/03/02 08:01:47;;;;;;;23.15;11.02;;;-0.60;99.90;;;;;;5058159;28;20021;-81
2023/03/02 08:04:12;;;;;;;22.95;11.75;;;-0.50;99.90;;;;;;5069629;28;20020;-80
2023/03/02 08:06:38;;;;;;;21.20;11.35;;;-0.40;99.90;;;;;;5066954;28;20028;-81
2023/03/02 08:09:04;;;;;;;24.60;10.23;;;-0.30;99.90;;;;;;5069131;28;20028;-80
2023/03/02 08:11:30;;;;;;;21.35;11.60;;;-0.20;99.90;;;;;;5068752;28;20116;-80
2023/03/02 08:13:59;;;;;;;22.45;9.88;;;-0.20;99.90;;;;;;5069939;28;20035;-80
2023/03/02 08:16:25;;;;;;;21.90;12.05;;;-0.10;99.90;;;;;;5067995;28;20020;-80
2023/03/02 08:18:50;;;;;;;22.70;12.45;;;0.00;99.90;;;;;;5068352;28;20037;-79
2023/03/02 08:21:19;;;;;;;22.60;12.55;;;0.00;99.90;;;;;;5069725;28;20100;-80
2023/03/02 08:23:45;;;;;;;22.80;11.15;;;0.00;99.90;;;;;;5068777;28;20027;-80
2023/03/02 08:26:11;;;;;;;23.58;10.73;;;0.10;99.90;;;;;;5068775;28;20547;-80
2023/03/02 08:28:37;;;;;;;20.25;11.32;;;0.10;99.90;;;;;;5065221;28;20036;-80
2023/03/02 08:31:04;;;;;;;21.92;11.48;;;0.10;99.90;;;;;;5049326;28;20032;-80
2023/03/02 08:33:30;;;;;;;22.17;11.70;;;0.10;99.90;;;;;;5070919;28;20024;-80
2023/03/02 08:35:59;;;;;;;28.45;13.10;;;0.20;99.90;;;;;;5070928;28;20024;-81
2023/03/02 08:38:25;;;;;;;23.17;12.00;;;0.30;99.90;;;;;;5070635;28;20127;-81
2023/03/02 08:40:51;;;;;;;21.83;11.60;;;0.40;99.90;;;;;;5070959;28;20048;-81
2023/03/02 08:43:19;;;;;;;34.65;11.90;;;0.60;99.90;;;;;;5071098;28;20526;-80
2023/03/02 08:45:45;;;;;;;20.13;10.80;;;0.80;99.90;;;;;;5070850;28;20029;-80
2023/03/02 08:48:10;;;;;;;22.52;10.85;;;0.80;99.90;;;;;;5073778;28;20037;-80
2023/03/02 08:50:36;;;;;;;18.98;9.93;;;0.80;99.90;;;;;;5074887;28;20028;-81
2023/03/02 08:53:01;;;;;;;17.92;9.82;;;0.80;99.90;;;;;;5074919;28;20024;-79
2023/03/02 08:55:27;;;;;;;19.85;9.75;;;0.90;99.90;;;;;;5074929;28;20059;-80
2023/03/02 08:57:53;;;;;;;20.88;10.40;;;1.00;99.90;;;;;;5074484;28;20055;-80
2023/03/02 09:00:19;;;;;;;25.08;11.57;;;1.00;99.90;;;;;;5074916;28;20044;-80
2023/03/02 09:02:44;;;;;;;20.08;10.32;;;1.10;99.90;;;;;;5074441;28;20021;-79
2023/03/02 09:05:11;;;;;;;19.70;10.85;;;1.10;99.90;;;;;;5074648;28;20027;-79
2023/03/02 09:07:36;;;;;;;20.55;9.63;;;1.10;99.90;;;;;;5074499;28;20033;-79
2023/03/02 09:10:02;;;;;;;22.35;10.95;;;1.20;99.90;;;;;;5074645;28;20046;-78
2023/03/02 09:12:28;;;;;;;22.50;10.57;;;1.20;99.90;;;;;;5074570;28;20020;-78
2023/03/02 09:14:53;;;;;;;19.80;9.82;;;1.20;99.90;;;;;;5074183;28;20030;-79
2023/03/02 09:17:19;;;;;;;16.48;10.05;;;1.30;99.90;;;;;;5074717;28;20542;-78
2023/03/02 09:19:44;;;;;;;22.58;10.52;;;1.30;99.90;;;;;;5074252;28;20074;-79
2023/03/02 09:22:10;;;;;;;23.05;11.05;;;1.30;99.90;;;;;;5056536;28;20063;-76
2023/03/02 09:24:36;;;;;;;20.45;11.65;;;1.40;99.90;;;;;;5074311;28;20070;-77
2023/03/02 09:27:02;;;;;;;17.52;10.90;;;1.40;99.90;;;;;;5073987;28;20037;-76
2023/03/02 09:29:28;;;;;;;22.55;10.68;;;1.50;99.90;;;;;;5070556;28;20424;-76
2023/03/02 09:31:53;;;;;;;21.58;11.85;;;1.50;99.90;;;;;;5070348;28;20058;-76
2023/03/02 09:34:19;;;;;;;21.70;11.48;;;1.50;99.90;;;;;;5079688;28;20024;-76
2023/03/02 09:36:45;;;;;;;24.52;11.95;;;1.60;99.90;;;;;;5057960;28;20074;-76
2023/03/02 09:39:11;;;;;;;23.90;11.40;;;1.70;99.90;;;;;;5054033;28;20124;-76
2023/03/02 09:42:00;;;;;;;24.00;11.25;;;1.70;99.90;;;;;;5070759;28;20029;-76
2023/03/02 09:45:07;;;;;;;21.40;12.25;;;1.80;99.90;;;;;;5060678;28;20024;-76
2023/03/02 09:47:49;;;;;;;24.40;13.50;;;1.80;99.90;;;;;;5071121;28;20131;-76
2023/03/02 09:50:35;;;;;;;19.05;10.98;;;1.80;99.90;;;;;;5073857;28;20039;-76
2023/03/02 09:53:25;;;;;;;19.77;11.88;;;1.90;99.90;;;;;;5073208;28;20032;-76
2023/03/02 09:55:54;;;;;;;29.90;12.27;;;1.90;99.90;;;;;;5073708;28;20025;-76
2023/03/02 09:58:24;;;;;;;23.65;11.38;;;1.90;99.90;;;;;;5072684;28;20073;-76
2023/03/02 10:00:50;;;;;;;24.88;12.02;;;1.90;99.90;;;;;;5073596;28;20059;-75
2023/03/02 10:03:17;;;;;;;27.85;12.80;;;1.90;99.90;;;;;;5073733;28;20032;-75
2023/03/02 10:05:47;;;;;;;21.65;12.57;;;2.00;99.90;;;;;;5073475;28;20037;-76
2023/03/02 10:08:15;;;;;;;25.05;11.77;;;2.00;99.90;;;;;;5073456;28;20032;-76
2023/03/02 10:11:11;;;;;;;27.85;12.35;;;2.00;99.90;;;;;;5073252;28;20552;-76
2023/03/02 10:13:53;;;;;;;30.65;13.50;;;2.10;99.90;;;;;;5073505;28;20469;-77
2023/03/02 10:16:44;;;;;;;22.35;12.25;;;2.10;99.90;;;;;;5073530;28;20024;-76
2023/03/02 10:19:40;;;;;;;29.42;13.65;;;2.20;99.90;;;;;;5055254;28;20040;-77
2023/03/02 10:22:15;;;;;;;26.85;14.68;;;2.20;99.90;;;;;;5073124;28;20039;-77
2023/03/02 10:24:51;;;;;;;23.45;13.75;;;2.30;99.90;;;;;;5073168;28;20051;-76
2023/03/02 10:27:24;;;;;;;29.65;13.43;;;2.30;99.90;;;;;;5073296;28;20032;-76
2023/03/02 10:30:01;;;;;;;25.92;12.90;;;2.40;99.90;;;;;;5073234;28;20086;-76
2023/03/02 10:32:47;;;;;;;23.90;12.77;;;2.40;99.90;;;;;;5073109;28;20217;-76
2023/03/02 10:35:17;;;;;;;27.55;14.55;;;2.50;99.90;;;;;;5073165;28;20033;-76
2023/03/02 10:37:42;;;;;;;25.17;12.02;;;2.70;99.90;;;;;;5072651;28;20083;-76
2023/03/02 10:40:38;;;;;;;27.27;13.23;;;2.70;99.90;;;;;;5072742;28;20033;-76
2023/03/02 10:43:09;;;;;;;23.48;12.32;;;2.70;99.90;;;;;;5072788;28;20024;-76
2023/03/02 10:45:34;;;;;;;25.05;12.70;;;2.80;99.90;;;;;;5073062;28;20048;-76
2023/03/02 10:48:06;;;;;;;42.95;14.25;;;2.80;99.90;;;;;;5072560;28;20071;-76
2023/03/02 10:50:32;;;;;;;27.52;13.18;;;2.90;99.90;;;;;;5072920;28;20021;-76
2023/03/02 10:52:58;;;;;;;22.55;12.07;;;3.00;99.90;;;;;;5072498;28;20051;-76
2023/03/02 10:55:24;;;;;;;19.88;11.73;;;3.00;99.90;;;;;;5072625;28;20071;-76
2023/03/02 10:58:04;;;;;;;27.08;13.85;;;3.00;99.90;;;;;;5072465;28;20044;-76
2023/03/02 11:00:31;;;;;;;26.27;13.57;;;3.10;99.90;;;;;;5072821;28;20474;-76
2023/03/02 11:03:04;;;;;;;29.05;14.02;;;3.10;99.90;;;;;;5072331;28;20470;-76
2023/03/02 11:05:37;;;;;;;26.35;13.93;;;3.20;99.90;;;;;;5072651;28;20025;-76
2023/03/02 11:08:09;;;;;;;33.85;15.57;;;3.20;99.90;;;;;;5072325;28;20043;-76
2023/03/02 11:10:37;;;;;;;31.52;14.40;;;3.30;99.90;;;;;;5071766;28;20024;-78
2023/03/02 11:13:27;;;;;;;28.52;15.10;;;3.30;99.90;;;;;;5072165;28;20032;-76
2023/03/02 11:16:19;;;;;;;30.83;14.40;;;3.30;99.90;;;;;;5072055;28;20059;-77
2023/03/02 11:18:56;;;;;;;26.73;13.73;;;3.40;99.90;;;;;;5061472;28;20025;-78
2023/03/02 11:21:40;;;;;;;26.77;15.10;;;3.40;99.90;;;;;;5057333;28;20045;-78
2023/03/02 11:24:28;;;;;;;40.28;18.10;;;3.40;99.90;;;;;;5064310;28;20056;-77
2023/03/02 11:27:11;;;;;;;32.42;15.00;;;3.50;99.90;;;;;;5057365;28;20544;-77
2023/03/02 11:29:44;;;;;;;32.45;16.58;;;3.50;99.90;;;;;;5062330;28;20056;-78
2023/03/02 11:32:27;;;;;;;32.95;16.27;;;3.50;99.90;;;;;;5030706;28;20028;-77
2023/03/02 11:35:13;;;;;;;31.70;15.93;;;3.60;99.90;;;;;;5057987;28;20122;-76
2023/03/02 11:37:54;;;;;;;23.10;11.32;;;3.60;99.90;;;;;;5066388;28;20083;-76
2023/03/02 11:40:42;;;;;;;35.88;14.63;;;3.60;99.90;;;;;;5060945;28;20364;-78
2023/03/02 11:43:09;;;;;;;31.08;16.73;;;3.60;99.90;;;;;;5054448;28;20029;-77
2023/03/02 11:45:41;;;;;;;37.95;16.42;;;3.70;99.90;;;;;;5061522;28;20423;-78
2023/03/02 11:48:26;;;;;;;29.45;16.15;;;3.70;99.90;;;;;;5059159;28;20083;-77
2023/03/02 11:50:55;;;;;;;33.33;16.38;;;3.80;99.90;;;;;;5062054;28;20040;-77
2023/03/02 11:53:24;;;;;;;30.50;15.90;;;3.90;99.90;;;;;;5062043;28;20123;-80
2023/03/02 11:55:50;;;;;;;31.70;17.35;;;3.90;99.90;;;;;;5055468;28;20032;-77
2023/03/02 11:58:23;;;;;;;31.15;16.27;;;3.90;99.90;;;;;;5049281;28;20032;-77
2023/03/02 12:00:50;;;;;;;31.60;15.85;;;4.00;99.90;;;;;;5065101;28;20564;-77
2023/03/02 12:03:16;;;;;;;36.30;17.50;;;4.00;99.90;;;;;;5060515;28;20028;-76
2023/03/02 12:05:45;;;;;;;30.08;16.75;;;4.10;99.90;;;;;;5065480;28;20370;-77
2023/03/02 12:08:19;;;;;;;35.13;16.77;;;4.10;99.90;;;;;;5056808;28;20044;-77
2023/03/02 12:11:26;;;;;;;30.35;16.50;;;4.10;99.90;;;;;;5063429;28;20036;-78
2023/03/02 12:13:59;;;;;;;35.70;17.20;;;4.10;99.90;;;;;;5057151;28;20077;-78
2023/03/02 12:16:44;;;;;;;31.38;17.48;;;4.20;99.90;;;;;;5056265;28;20643;-78
2023/03/02 12:19:23;;;;;;;34.13;17.38;;;4.20;99.90;;;;;;5057322;28;20043;-80
2023/03/02 12:22:01;;;;;;;32.53;16.80;;;4.30;99.90;;;;;;5062297;28;20040;-77
2023/03/02 12:24:32;;;;;;;34.72;17.90;;;4.30;99.90;;;;;;5059968;28;20340;-79
2023/03/02 12:27:19;;;;;;;31.75;16.25;;;4.30;99.90;;;;;;5032987;28;20033;-80
2023/03/02 12:29:50;;;;;;;33.85;17.42;;;4.40;99.90;;;;;;5062024;28;20039;-79
2023/03/02 12:32:21;;;;;;;30.63;15.48;;;4.40;99.90;;;;;;5065018;28;20089;-78
2023/03/02 12:35:06;;;;;;;40.00;18.35;;;4.40;99.90;;;;;;5051271;28;20066;-78
2023/03/02 12:37:35;;;;;;;30.58;17.58;;;4.50;99.90;;;;;;5065631;28;20083;-78
2023/03/02 12:40:24;;;;;;;38.83;18.45;;;4.60;99.90;;;;;;5048794;28;20036;-78
2023/03/02 12:43:27;;;;;;;32.90;17.23;;;4.60;99.90;;;;;;5057233;28;20032;-80
2023/03/02 12:46:07;;;;;;;31.98;17.83;;;4.70;99.90;;;;;;5048677;28;20439;-79